sensor_id;sensor_type;location;lat;lon;timestamp;P1;durP1;ratioP1;P2;durP2;ratioP2
53688;SDS011;39583;54.682;30.662;2024-03-02T06:05:39;32.03;;;11.95;;
53688;SDS011;39583;54.682;30.662;2024-03-02T06:08:08;21.17;;;7.88;;
53688;SDS011;39583;54.682;30.662;2024-03-02T06:10:35;24.25;;;9.23;;
53688;SDS011;39583;54.682;30.662;2024-03-02T06:13:02;22.67;;;7.70;;
53688;SDS011;39583;54.682;30.662;2024-03-02T06:15:30;24.75;;;9.73;;
53688;SDS011;39583;54.682;30.662;2024-03-02T06:17:57;19.50;;;7.70;;
53688;SDS011;39583;54.682;30.662;2024-03-02T06:20:24;29.73;;;8.98;;
53688;SDS011;39583;54.682;30.662;2024-03-02T06:22:53;21.10;;;8.25;;
53688;SDS011;39583;54.682;30.662;2024-03-02T06:25:21;21.95;;;7.07;;
53688;SDS011;39583;54.682;30.662;2024-03-02T06:27:48;22.40;;;7.80;;
53688;SDS011;39583;54.682;30.662;2024-03-02T06:30:16;19.23;;;8.35;;
53688;SDS011;39583;54.682;30.662;2024-03-02T06:32:43;17.38;;;7.63;;
53688;SDS011;39583;54.682;30.662;2024-03-02T06:35:10;18.42;;;6.75;;
53688;SDS011;39583;54.682;30.662;2024-03-02T06:37:39;20.75;;;7.07;;
53688;SDS011;39583;54.682;30.662;2024-03-02T06:40:07;18.92;;;6.85;;
53688;SDS011;39583;54.682;30.662;2024-03-02T06:42:35;20.33;;;7.90;;
53688;SDS011;39583;54.682;30.662;2024-03-02T06:45:02;19.77;;;8.23;;
53688;SDS011;39583;54.682;30.662;2024-03-02T06:47:30;16.90;;;7.47;;
53688;SDS011;39583;54.682;30.662;2024-03-02T06:49:58;30.48;;;8.70;;
53688;SDS011;39583;54.682;30.662;2024-03-02T06:52:25;18.20;;;8.27;;
53688;SDS011;39583;54.682;30.662;2024-03-02T06:54:53;22.45;;;7.47;;
53688;SDS011;39583;54.682;30.662;2024-03-02T06:57:20;18.88;;;8.15;;
53688;SDS011;39583;54.682;30.662;2024-03-02T06:59:48;19.83;;;7.55;;
53688;SDS011;39583;54.682;30.662;2024-03-02T07:02:17;19.55;;;7.55;;
53688;SDS011;39583;54.682;30.662;2024-03-02T07:04:45;21.45;;;7.47;;
53688;SDS011;39583;54.682;30.662;2024-03-02T07:07:12;20.67;;;7.18;;
53688;SDS011;39583;54.682;30.662;2024-03-02T07:09:39;21.35;;;6.75;;
53688;SDS011;39583;54.682;30.662;2024-03-02T07:12:07;17.42;;;7.03;;
53688;SDS011;39583;54.682;30.662;2024-03-02T07:14:35;20.55;;;6.85;;
53688;SDS011;39583;54.682;30.662;2024-03-02T07:17:21;22.40;;;6.93;;
53688;SDS011;39583;54.682;30.662;2024-03-02T07:19:48;18.90;;;6.90;;
53688;SDS011;39583;54.682;30.662;2024-03-02T07:22:15;16.50;;;6.53;;
53688;SDS011;39583;54.682;30.662;2024-03-02T07:24:43;17.73;;;6.18;;
53688;SDS011;39583;54.682;30.662;2024-03-02T07:27:11;16.92;;;6.70;;
53688;SDS011;39583;54.682;30.662;2024-03-02T07:29:39;17.38;;;6.78;;
53688;SDS011;39583;54.682;30.662;2024-03-02T07:32:07;15.98;;;5.57;;
53688;SDS011;39583;54.682;30.662;2024-03-02T07:34:34;13.55;;;5.82;;
53688;SDS011;39583;54.682;30.662;2024-03-02T07:37:02;13.23;;;6.10;;
53688;SDS011;39583;54.682;30.662;2024-03-02T07:39:29;10.95;;;5.20;;
53688;SDS011;39583;54.682;30.662;2024-03-02T07:41:57;15.77;;;5.85;;
53688;SDS011;39583;54.682;30.662;2024-03-02T07:44:24;12.00;;;5.03;;
53688;SDS011;39583;54.682;30.662;2024-03-02T07:46:52;19.55;;;6.63;;
53688;SDS011;39583;54.682;30.662;2024-03-02T07:49:19;13.45;;;5.10;;
53688;SDS011;39583;54.682;30.662;2024-03-02T07:51:46;18.35;;;6.85;;
53688;SDS011;39583;54.682;30.662;2024-03-02T07:54:14;12.52;;;5.85;;
53688;SDS011;39583;54.682;30.662;2024-03-02T07:56:41;13.07;;;6.35;;
53688;SDS011;39583;54.682;30.662;2024-03-02T07:59:08;14.52;;;6.35;;
53688;SDS011;39583;54.682;30.662;2024-03-02T08:01:36;9.00;;;4.10;;
53688;SDS011;39583;54.682;30.662;2024-03-02T08:04:03;11.85;;;5.15;;
53688;SDS011;39583;54.682;30.662;2024-03-02T08:06:31;17.17;;;5.70;;
53688;SDS011;39583;54.682;30.662;2024-03-02T08:08:59;12.93;;;5.93;;
53688;SDS011;39583;54.682;30.662;2024-03-02T08:11:27;12.32;;;5.45;;
53688;SDS011;39583;54.682;30.662;2024-03-02T08:13:54;13.35;;;5.40;;
53688;SDS011;39583;54.682;30.662;2024-03-02T08:16:22;12.75;;;5.20;;
53688;SDS011;39583;54.682;30.662;2024-03-02T08:18:50;16.45;;;6.18;;
53688;SDS011;39583;54.682;30.662;2024-03-02T08:21:18;9.88;;;4.40;;
53688;SDS011;39583;54.682;30.662;2024-03-02T08:23:45;20.83;;;5.90;;
53688;SDS011;39583;54.682;30.662;2024-03-02T08:26:13;14.85;;;5.75;;
53688;SDS011;39583;54.682;30.662;2024-03-02T08:28:40;10.63;;;4.15;;
53688;SDS011;39583;54.682;30.662;2024-03-02T08:31:07;11.15;;;4.45;;
53688;SDS011;39583;54.682;30.662;2024-03-02T08:33:35;14.13;;;5.93;;
53688;SDS011;39583;54.682;30.662;2024-03-02T08:36:04;14.93;;;6.07;;
53688;SDS011;39583;54.682;30.662;2024-03-02T08:38:32;12.45;;;5.53;;
53688;SDS011;39583;54.682;30.662;2024-03-02T08:40:59;16.05;;;6.43;;
53688;SDS011;39583;54.682;30.662;2024-03-02T08:43:27;12.50;;;5.47;;
53688;SDS011;39583;54.682;30.662;2024-03-02T08:45:54;11.40;;;5.43;;
53688;SDS011;39583;54.682;30.662;2024-03-02T08:48:22;12.80;;;5.88;;
53688;SDS011;39583;54.682;30.662;2024-03-02T08:50:49;13.55;;;5.75;;
53688;SDS011;39583;54.682;30.662;2024-03-02T08:53:16;13.65;;;5.18;;
53688;SDS011;39583;54.682;30.662;2024-03-02T08:55:45;9.68;;;4.78;;
53688;SDS011;39583;54.682;30.662;2024-03-02T08:58:13;9.43;;;3.78;;
53688;SDS011;39583;54.682;30.662;2024-03-02T09:00:40;14.00;;;5.10;;
53688;SDS011;39583;54.682;30.662;2024-03-02T09:03:08;11.13;;;5.18;;
53688;SDS011;39583;54.682;30.662;2024-03-02T09:05:36;8.55;;;4.18;;
53688;SDS011;39583;54.682;30.662;2024-03-02T09:08:03;10.48;;;4.38;;
53688;SDS011;39583;54.682;30.662;2024-03-02T09:10:30;14.57;;;5.20;;
53688;SDS011;39583;54.682;30.662;2024-03-02T09:12:58;9.15;;;3.95;;
53688;SDS011;39583;54.682;30.662;2024-03-02T09:15:25;8.38;;;4.15;;
53688;SDS011;39583;54.682;30.662;2024-03-02T09:17:53;12.57;;;4.40;;
53688;SDS011;39583;54.682;30.662;2024-03-02T09:20:20;13.38;;;4.55;;
53688;SDS011;39583;54.682;30.662;2024-03-02T09:22:47;8.63;;;4.25;;
53688;SDS011;39583;54.682;30.662;2024-03-02T09:25:15;7.97;;;3.95;;
53688;SDS011;39583;54.682;30.662;2024-03-02T09:27:43;12.93;;;4.00;;
53688;SDS011;39583;54.682;30.662;2024-03-02T09:30:10;7.63;;;3.03;;
53688;SDS011;39583;54.682;30.662;2024-03-02T09:32:38;7.15;;;3.22;;
53688;SDS011;39583;54.682;30.662;2024-03-02T09:35:05;8.27;;;3.50;;
53688;SDS011;39583;54.682;30.662;2024-03-02T09:37:33;12.35;;;3.72;;
53688;SDS011;39583;54.682;30.662;2024-03-02T09:40:00;8.13;;;4.25;;
53688;SDS011;39583;54.682;30.662;2024-03-02T09:42:27;14.07;;;3.42;;
53688;SDS011;39583;54.682;30.662;2024-03-02T09:44:55;9.95;;;3.28;;
53688;SDS011;39583;54.682;30.662;2024-03-02T09:47:24;10.10;;;3.72;;
53688;SDS011;39583;54.682;30.662;2024-03-02T09:49:51;8.93;;;3.67;;
53688;SDS011;39583;54.682;30.662;2024-03-02T09:52:18;10.00;;;3.72;;
53688;SDS011;39583;54.682;30.662;2024-03-02T09:54:47;8.77;;;3.25;;
53688;SDS011;39583;54.682;30.662;2024-03-02T09:57:14;11.82;;;4.05;;
53688;SDS011;39583;54.682;30.662;2024-03-02T09:59:42;10.40;;;3.72;;
53688;SDS011;39583;54.682;30.662;2024-03-02T10:02:09;17.00;;;4.00;;
53688;SDS011;39583;54.682;30.662;2024-03-02T10:04:36;9.18;;;3.70;;
53688;SDS011;39583;54.682;30.662;2024-03-02T10:07:17;8.68;;;3.63;;
53688;SDS011;39583;54.682;30.662;2024-03-02T10:09:48;10.13;;;3.90;;
53688;SDS011;39583;54.682;30.662;2024-03-02T10:12:16;8.25;;;3.35;;
53688;SDS011;39583;54.682;30.662;2024-03-02T10:14:44;9.57;;;4.10;;
53688;SDS011;39583;54.682;30.662;2024-03-02T10:17:13;6.50;;;3.53;;
53688;SDS011;39583;54.682;30.662;2024-03-02T10:19:40;8.77;;;3.45;;
53688;SDS011;39583;54.682;30.662;2024-03-02T10:22:08;11.60;;;3.95;;
53688;SDS011;39583;54.682;30.662;2024-03-02T10:27:08;12.40;;;3.90;;
53688;SDS011;39583;54.682;30.662;2024-03-02T10:29:36;8.65;;;4.22;;
53688;SDS011;39583;54.682;30.662;2024-03-02T10:32:04;14.38;;;4.38;;
53688;SDS011;39583;54.682;30.662;2024-03-02T10:34:31;16.35;;;4.57;;
53688;SDS011;39583;54.682;30.662;2024-03-02T10:36:59;12.05;;;4.30;;
53688;SDS011;39583;54.682;30.662;2024-03-02T10:39:28;13.00;;;4.22;;
53688;SDS011;39583;54.682;30.662;2024-03-02T10:41:56;8.48;;;4.20;;
53688;SDS011;39583;54.682;30.662;2024-03-02T10:44:24;9.52;;;3.65;;
53688;SDS011;39583;54.682;30.662;2024-03-02T10:46:52;10.80;;;4.32;;
53688;SDS011;39583;54.682;30.662;2024-03-02T10:49:21;7.72;;;3.67;;
53688;SDS011;39583;54.682;30.662;2024-03-02T10:51:49;13.18;;;4.53;;
53688;SDS011;39583;54.682;30.662;2024-03-02T10:54:17;8.77;;;4.22;;
53688;SDS011;39583;54.682;30.662;2024-03-02T10:56:45;11.45;;;4.55;;
53688;SDS011;39583;54.682;30.662;2024-03-02T10:59:17;9.80;;;4.35;;
53688;SDS011;39583;54.682;30.662;2024-03-02T11:01:49;9.63;;;4.53;;
53688;SDS011;39583;54.682;30.662;2024-03-02T11:04:17;7.95;;;4.00;;
53688;SDS011;39583;54.682;30.662;2024-03-02T11:06:48;8.48;;;3.90;;
53688;SDS011;39583;54.682;30.662;2024-03-02T11:09:16;9.55;;;4.00;;
53688;SDS011;39583;54.682;30.662;2024-03-02T11:11:45;8.65;;;4.22;;
53688;SDS011;39583;54.682;30.662;2024-03-02T11:14:14;10.13;;;4.03;;
53688;SDS011;39583;54.682;30.662;2024-03-02T11:16:43;8.00;;;3.83;;
53688;SDS011;39583;54.682;30.662;2024-03-02T11:19:12;11.02;;;4.43;;
53688;SDS011;39583;54.682;30.662;2024-03-02T11:21:43;12.25;;;3.80;;
53688;SDS011;39583;54.682;30.662;2024-03-02T11:26:51;12.35;;;4.65;;
53688;SDS011;39583;54.682;30.662;2024-03-02T11:32:20;10.13;;;4.55;;
53688;SDS011;39583;54.682;30.662;2024-03-02T11:34:49;9.02;;;3.78;;
53688;SDS011;39583;54.682;30.662;2024-03-02T11:37:17;8.57;;;4.05;;
53688;SDS011;39583;54.682;30.662;2024-03-02T11:39:44;16.17;;;5.22;;
53688;SDS011;39583;54.682;30.662;2024-03-02T11:42:12;9.57;;;4.28;;
53688;SDS011;39583;54.682;30.662;2024-03-02T11:44:46;17.90;;;5.03;;
53688;SDS011;39583;54.682;30.662;2024-03-02T11:47:14;9.40;;;3.80;;
53688;SDS011;39583;54.682;30.662;2024-03-02T11:49:43;7.82;;;4.30;;
53688;SDS011;39583;54.682;30.662;2024-03-02T11:52:11;8.15;;;4.38;;
53688;SDS011;39583;54.682;30.662;2024-03-02T11:54:39;12.52;;;4.40;;
53688;SDS011;39583;54.682;30.662;2024-03-02T11:57:07;14.00;;;5.25;;
53688;SDS011;39583;54.682;30.662;2024-03-02T11:59:35;9.05;;;4.95;;
53688;SDS011;39583;54.682;30.662;2024-03-02T12:02:03;13.65;;;4.80;;
53688;SDS011;39583;54.682;30.662;2024-03-02T12:04:30;9.88;;;4.63;;
53688;SDS011;39583;54.682;30.662;2024-03-02T12:06:58;11.63;;;5.00;;
53688;SDS011;39583;54.682;30.662;2024-03-02T12:09:29;10.73;;;4.40;;
53688;SDS011;39583;54.682;30.662;2024-03-02T12:12:09;12.13;;;4.50;;
53688;SDS011;39583;54.682;30.662;2024-03-02T12:14:37;11.52;;;4.75;;
53688;SDS011;39583;54.682;30.662;2024-03-02T12:17:05;8.38;;;4.57;;
53688;SDS011;39583;54.682;30.662;2024-03-02T12:19:32;17.15;;;5.82;;
53688;SDS011;39583;54.682;30.662;2024-03-02T12:22:00;9.60;;;5.00;;
53688;SDS011;39583;54.682;30.662;2024-03-02T12:24:28;11.18;;;4.90;;
53688;SDS011;39583;54.682;30.662;2024-03-02T12:26:56;10.73;;;5.07;;
53688;SDS011;39583;54.682;30.662;2024-03-02T12:29:24;11.23;;;5.03;;
53688;SDS011;39583;54.682;30.662;2024-03-02T12:31:52;12.50;;;5.22;;
53688;SDS011;39583;54.682;30.662;2024-03-02T12:34:19;12.48;;;5.20;;
53688;SDS011;39583;54.682;30.662;2024-03-02T12:36:48;12.63;;;5.25;;
53688;SDS011;39583;54.682;30.662;2024-03-02T12:39:16;10.43;;;5.75;;
53688;SDS011;39583;54.682;30.662;2024-03-02T12:41:44;10.57;;;5.53;;
53688;SDS011;39583;54.682;30.662;2024-03-02T12:44:12;8.18;;;4.97;;
53688;SDS011;39583;54.682;30.662;2024-03-02T12:46:39;7.03;;;4.70;;
53688;SDS011;39583;54.682;30.662;2024-03-02T12:49:09;9.35;;;5.13;;
53688;SDS011;39583;54.682;30.662;2024-03-02T12:51:40;12.70;;;5.50;;
53688;SDS011;39583;54.682;30.662;2024-03-02T12:54:08;10.63;;;5.22;;
53688;SDS011;39583;54.682;30.662;2024-03-02T12:56:36;9.80;;;5.57;;
53688;SDS011;39583;54.682;30.662;2024-03-02T12:59:05;12.98;;;5.13;;
53688;SDS011;39583;54.682;30.662;2024-03-02T13:01:32;10.20;;;5.15;;
53688;SDS011;39583;54.682;30.662;2024-03-02T13:04:00;7.80;;;4.32;;
53688;SDS011;39583;54.682;30.662;2024-03-02T13:06:27;7.80;;;3.40;;
53688;SDS011;39583;54.682;30.662;2024-03-02T13:08:55;8.32;;;4.35;;
53688;SDS011;39583;54.682;30.662;2024-03-02T13:11:22;11.48;;;4.32;;
53688;SDS011;39583;54.682;30.662;2024-03-02T13:13:53;7.68;;;4.72;;
53688;SDS011;39583;54.682;30.662;2024-03-02T13:16:20;9.57;;;4.85;;
53688;SDS011;39583;54.682;30.662;2024-03-02T13:18:58;10.43;;;4.55;;
53688;SDS011;39583;54.682;30.662;2024-03-02T13:21:25;10.93;;;5.20;;
53688;SDS011;39583;54.682;30.662;2024-03-02T13:23:53;8.10;;;4.90;;
53688;SDS011;39583;54.682;30.662;2024-03-02T13:26:20;8.55;;;4.70;;
53688;SDS011;39583;54.682;30.662;2024-03-02T13:28:48;9.25;;;4.60;;
53688;SDS011;39583;54.682;30.662;2024-03-02T13:31:15;15.20;;;5.10;;
53688;SDS011;39583;54.682;30.662;2024-03-02T13:33:42;9.40;;;5.72;;
53688;SDS011;39583;54.682;30.662;2024-03-02T13:36:10;10.27;;;5.30;;
53688;SDS011;39583;54.682;30.662;2024-03-02T13:38:37;9.30;;;5.32;;
53688;SDS011;39583;54.682;30.662;2024-03-02T13:41:04;8.45;;;3.78;;
53688;SDS011;39583;54.682;30.662;2024-03-02T13:43:32;8.45;;;4.72;;
53688;SDS011;39583;54.682;30.662;2024-03-02T13:45:59;9.23;;;4.53;;
53688;SDS011;39583;54.682;30.662;2024-03-02T13:48:27;10.07;;;4.88;;
53688;SDS011;39583;54.682;30.662;2024-03-02T13:50:54;9.43;;;5.25;;
53688;SDS011;39583;54.682;30.662;2024-03-02T13:53:22;9.40;;;4.53;;
53688;SDS011;39583;54.682;30.662;2024-03-02T13:55:49;9.40;;;4.60;;
53688;SDS011;39583;54.682;30.662;2024-03-02T13:58:17;12.15;;;4.97;;
53688;SDS011;39583;54.682;30.662;2024-03-02T14:00:44;6.43;;;3.67;;
53688;SDS011;39583;54.682;30.662;2024-03-02T14:03:12;8.65;;;4.65;;
53688;SDS011;39583;54.682;30.662;2024-03-02T14:05:39;10.60;;;4.57;;
53688;SDS011;39583;54.682;30.662;2024-03-02T14:08:06;6.85;;;4.18;;
53688;SDS011;39583;54.682;30.662;2024-03-02T14:10:34;11.75;;;4.93;;
53688;SDS011;39583;54.682;30.662;2024-03-02T14:13:02;7.60;;;4.18;;
53688;SDS011;39583;54.682;30.662;2024-03-02T14:15:30;10.27;;;5.20;;
53688;SDS011;39583;54.682;30.662;2024-03-02T14:17:58;12.43;;;4.78;;
53688;SDS011;39583;54.682;30.662;2024-03-02T14:20:25;14.57;;;5.32;;
53688;SDS011;39583;54.682;30.662;2024-03-02T14:22:53;13.00;;;5.32;;
53688;SDS011;39583;54.682;30.662;2024-03-02T14:25:20;10.52;;;5.35;;
53688;SDS011;39583;54.682;30.662;2024-03-02T14:27:47;11.25;;;5.30;;
53688;SDS011;39583;54.682;30.662;2024-03-02T14:30:35;11.57;;;3.95;;
53688;SDS011;39583;54.682;30.662;2024-03-02T14:33:03;9.10;;;4.63;;
53688;SDS011;39583;54.682;30.662;2024-03-02T14:35:30;9.45;;;4.40;;
53688;SDS011;39583;54.682;30.662;2024-03-02T14:37:57;11.05;;;5.03;;
53688;SDS011;39583;54.682;30.662;2024-03-02T14:40:25;10.13;;;4.68;;
53688;SDS011;39583;54.682;30.662;2024-03-02T14:42:54;7.80;;;4.07;;
53688;SDS011;39583;54.682;30.662;2024-03-02T14:45:21;10.75;;;4.35;;
53688;SDS011;39583;54.682;30.662;2024-03-02T14:47:51;8.88;;;4.07;;
53688;SDS011;39583;54.682;30.662;2024-03-02T14:50:19;7.60;;;4.32;;
53688;SDS011;39583;54.682;30.662;2024-03-02T14:52:46;10.85;;;4.80;;
53688;SDS011;39583;54.682;30.662;2024-03-02T14:55:14;8.55;;;4.22;;
53688;SDS011;39583;54.682;30.662;2024-03-02T14:57:41;11.63;;;4.78;;
53688;SDS011;39583;54.682;30.662;2024-03-02T15:00:09;11.02;;;4.70;;
53688;SDS011;39583;54.682;30.662;2024-03-02T15:02:38;8.95;;;4.60;;
53688;SDS011;39583;54.682;30.662;2024-03-02T15:05:05;12.05;;;4.68;;
53688;SDS011;39583;54.682;30.662;2024-03-02T15:07:33;9.75;;;4.07;;
53688;SDS011;39583;54.682;30.662;2024-03-02T15:10:00;8.27;;;4.07;;
53688;SDS011;39583;54.682;30.662;2024-03-02T15:12:27;10.73;;;4.13;;
53688;SDS011;39583;54.682;30.662;2024-03-02T15:14:55;9.05;;;4.18;;
53688;SDS011;39583;54.682;30.662;2024-03-02T15:17:22;8.35;;;4.38;;
53688;SDS011;39583;54.682;30.662;2024-03-02T15:19:50;7.68;;;3.90;;
53688;SDS011;39583;54.682;30.662;2024-03-02T15:22:17;8.38;;;4.05;;
53688;SDS011;39583;54.682;30.662;2024-03-02T15:24:45;11.13;;;4.13;;
53688;SDS011;39583;54.682;30.662;2024-03-02T15:27:12;9.45;;;3.80;;
53688;SDS011;39583;54.682;30.662;2024-03-02T15:29:39;5.45;;;2.63;;
53688;SDS011;39583;54.682;30.662;2024-03-02T15:32:07;7.18;;;3.70;;
53688;SDS011;39583;54.682;30.662;2024-03-02T15:34:35;6.72;;;3.92;;
53688;SDS011;39583;54.682;30.662;2024-03-02T15:37:02;7.28;;;3.70;;
53688;SDS011;39583;54.682;30.662;2024-03-02T15:39:31;8.48;;;3.35;;
53688;SDS011;39583;54.682;30.662;2024-03-02T15:41:59;7.63;;;3.58;;
53688;SDS011;39583;54.682;30.662;2024-03-02T15:44:26;8.07;;;3.47;;
53688;SDS011;39583;54.682;30.662;2024-03-02T15:46:53;6.32;;;3.40;;
53688;SDS011;39583;54.682;30.662;2024-03-02T15:49:21;5.75;;;2.78;;
53688;SDS011;39583;54.682;30.662;2024-03-02T15:51:48;7.70;;;3.15;;
53688;SDS011;39583;54.682;30.662;2024-03-02T15:54:15;4.90;;;2.60;;
53688;SDS011;39583;54.682;30.662;2024-03-02T15:56:43;4.35;;;2.38;;
53688;SDS011;39583;54.682;30.662;2024-03-02T15:59:10;3.13;;;2.00;;
53688;SDS011;39583;54.682;30.662;2024-03-02T16:01:38;11.60;;;3.40;;
53688;SDS011;39583;54.682;30.662;2024-03-02T16:04:05;5.88;;;2.80;;
53688;SDS011;39583;54.682;30.662;2024-03-02T16:06:32;5.40;;;2.83;;
53688;SDS011;39583;54.682;30.662;2024-03-02T16:09:00;7.20;;;2.97;;
53688;SDS011;39583;54.682;30.662;2024-03-02T16:11:27;6.72;;;3.65;;
53688;SDS011;39583;54.682;30.662;2024-03-02T16:13:55;7.20;;;2.78;;
53688;SDS011;39583;54.682;30.662;2024-03-02T16:16:22;6.97;;;3.25;;
53688;SDS011;39583;54.682;30.662;2024-03-02T16:18:50;4.93;;;2.90;;
53688;SDS011;39583;54.682;30.662;2024-03-02T16:21:17;9.05;;;3.88;;
53688;SDS011;39583;54.682;30.662;2024-03-02T16:23:47;7.68;;;3.20;;
53688;SDS011;39583;54.682;30.662;2024-03-02T16:26:14;7.20;;;3.15;;
53688;SDS011;39583;54.682;30.662;2024-03-02T16:28:41;4.95;;;2.70;;
53688;SDS011;39583;54.682;30.662;2024-03-02T16:31:09;5.85;;;3.30;;
53688;SDS011;39583;54.682;30.662;2024-03-02T16:33:37;6.90;;;3.22;;
53688;SDS011;39583;54.682;30.662;2024-03-02T16:36:07;7.18;;;3.25;;
53688;SDS011;39583;54.682;30.662;2024-03-02T16:38:34;8.77;;;3.47;;
53688;SDS011;39583;54.682;30.662;2024-03-02T16:41:01;5.50;;;3.10;;
53688;SDS011;39583;54.682;30.662;2024-03-02T16:43:29;8.40;;;3.35;;
53688;SDS011;39583;54.682;30.662;2024-03-02T16:45:56;6.82;;;3.30;;
53688;SDS011;39583;54.682;30.662;2024-03-02T16:48:24;6.13;;;3.38;;
53688;SDS011;39583;54.682;30.662;2024-03-02T16:50:51;7.28;;;4.63;;
53688;SDS011;39583;54.682;30.662;2024-03-02T16:53:18;5.72;;;2.72;;
53688;SDS011;39583;54.682;30.662;2024-03-02T16:55:46;5.68;;;3.45;;
53688;SDS011;39583;54.682;30.662;2024-03-02T16:58:13;6.22;;;2.83;;
53688;SDS011;39583;54.682;30.662;2024-03-02T17:00:41;6.90;;;3.10;;
53688;SDS011;39583;54.682;30.662;2024-03-02T17:03:09;5.47;;;3.58;;
53688;SDS011;39583;54.682;30.662;2024-03-02T17:05:36;6.55;;;3.17;;
53688;SDS011;39583;54.682;30.662;2024-03-02T17:08:04;7.43;;;3.40;;
53688;SDS011;39583;54.682;30.662;2024-03-02T17:10:34;7.22;;;2.90;;
53688;SDS011;39583;54.682;30.662;2024-03-02T17:13:01;5.18;;;3.25;;
53688;SDS011;39583;54.682;30.662;2024-03-02T17:15:29;7.45;;;3.95;;
53688;SDS011;39583;54.682;30.662;2024-03-02T17:17:56;7.18;;;3.38;;
53688;SDS011;39583;54.682;30.662;2024-03-02T17:20:24;9.55;;;3.58;;
53688;SDS011;39583;54.682;30.662;2024-03-02T17:22:51;9.43;;;3.30;;
53688;SDS011;39583;54.682;30.662;2024-03-02T17:25:18;9.25;;;3.60;;
53688;SDS011;39583;54.682;30.662;2024-03-02T17:27:46;6.85;;;3.67;;
53688;SDS011;39583;54.682;30.662;2024-03-02T17:30:14;9.02;;;3.20;;
53688;SDS011;39583;54.682;30.662;2024-03-02T17:32:41;6.55;;;3.10;;
53688;SDS011;39583;54.682;30.662;2024-03-02T17:35:09;9.45;;;3.47;;
53688;SDS011;39583;54.682;30.662;2024-03-02T17:37:36;8.52;;;3.58;;
53688;SDS011;39583;54.682;30.662;2024-03-02T17:40:06;8.80;;;3.63;;
53688;SDS011;39583;54.682;30.662;2024-03-02T17:42:34;8.52;;;3.38;;
53688;SDS011;39583;54.682;30.662;2024-03-02T17:45:01;8.65;;;3.95;;
53688;SDS011;39583;54.682;30.662;2024-03-02T17:47:28;7.00;;;3.20;;
53688;SDS011;39583;54.682;30.662;2024-03-02T17:49:57;7.10;;;3.60;;
53688;SDS011;39583;54.682;30.662;2024-03-02T17:52:24;6.97;;;3.55;;
53688;SDS011;39583;54.682;30.662;2024-03-02T17:54:51;7.32;;;3.65;;
53688;SDS011;39583;54.682;30.662;2024-03-02T17:57:20;6.00;;;3.15;;
53688;SDS011;39583;54.682;30.662;2024-03-02T17:59:47;7.85;;;3.92;;
53688;SDS011;39583;54.682;30.662;2024-03-02T18:02:14;10.70;;;3.28;;
53688;SDS011;39583;54.682;30.662;2024-03-02T18:04:42;8.32;;;3.50;;
53688;SDS011;39583;54.682;30.662;2024-03-02T18:07:10;9.23;;;4.13;;
53688;SDS011;39583;54.682;30.662;2024-03-02T18:09:37;5.53;;;3.20;;
53688;SDS011;39583;54.682;30.662;2024-03-02T18:12:04;6.00;;;3.17;;
53688;SDS011;39583;54.682;30.662;2024-03-02T18:14:34;7.75;;;3.10;;
53688;SDS011;39583;54.682;30.662;2024-03-02T18:17:06;6.25;;;3.28;;
53688;SDS011;39583;54.682;30.662;2024-03-02T18:19:33;6.18;;;2.92;;
53688;SDS011;39583;54.682;30.662;2024-03-02T18:22:00;7.80;;;3.22;;
53688;SDS011;39583;54.682;30.662;2024-03-02T18:24:30;7.20;;;3.50;;
53688;SDS011;39583;54.682;30.662;2024-03-02T18:27:01;7.63;;;3.55;;
53688;SDS011;39583;54.682;30.662;2024-03-02T18:29:28;6.78;;;3.33;;
53688;SDS011;39583;54.682;30.662;2024-03-02T18:31:56;6.85;;;3.47;;
53688;SDS011;39583;54.682;30.662;2024-03-02T18:34:24;6.82;;;3.15;;
53688;SDS011;39583;54.682;30.662;2024-03-02T18:36:52;7.10;;;3.13;;
53688;SDS011;39583;54.682;30.662;2024-03-02T18:39:22;7.32;;;3.72;;
53688;SDS011;39583;54.682;30.662;2024-03-02T18:41:49;10.82;;;3.97;;
